Merton, WI (53056)

7:17 AM CDT on September 28, 2016 (GMT -0500)
Lake Keesus | | Change Station

Elev 991 ft 43.16 °N, 88.31 °W | Updated 2 seconds ago

Light Rain
Light Rain
49.8 °F
Feels Like 50 °F
N
2.0
Wind Variable Wind from West

Today
High -- | Low -- °F
--% Chance of Precip.
Yesterday
High -- | Low -- °F
Precip. -- in
Pressure 29.85 in
Visibility 7.0 miles
Clouds Overcast 700 ft
Windchill 50 °F
Dew Point 48 °F
Humidity 96%
Rainfall 0.02 in
Snow Depth Not available.
6:47 AM 6:38 PM
Waning Crescent, 6% visible
METAR KUES 281145Z 30005KT 7SM -RA OVC007 09/08 A2985
Pressure 29.85 in
Visibility 7.0 miles
Clouds Overcast 700 ft
Windchill 50 °F
Dew Point 48 °F
Humidity 96%
Rainfall 0.02 in
Snow Depth Not available.
6:47 AM 6:38 PM
Waning Crescent, 6% visible
METAR KUES 281145Z 30005KT 7SM -RA OVC007 09/08 A2985

10-Day Weather Forecast

Almanac

Astronomy

Sep. 28, 2016 Rise Set
Actual Time
Civil Twilight
Nautical Twilight
Astronomical Twilight
Moon
Length of Visible Light
Length of Day
Tomorrow will be .
, % of the Moon is Illuminated

Today's Extremes

State Highs State Lows

Community

WunderPhotos

Upload Photos

1,942,236 photos uploaded!

WunderBlog® & News

Nearby

Air Quality

  Air Quality AQ Index Pollutant
Not available.

Snow Depth

Station Depth Elevation

Earthquake Activity

City Distance Mag. Time & Date
Minimum magnitude displayed is 2.5.

Coastal Water Temperatures

Place Temperature

Stations

Nearby Weather Stations

Station Location Temp. Windchill Dew Point Humidity Wind Precip. Elev Updated Type
                   

Watches & Warnings

There are currently no watches in effect.